sensor_id;sensor_type;location;lat;lon;timestamp;pressure;altitude;pressure_sealevel;temperature;humidity
58373;BME280;44177;43.356;27.672;2023-05-20T00:00:07;98276.66;;;13.67;71.92
58373;BME280;44177;43.356;27.672;2023-05-20T00:02:33;98260.44;;;13.58;71.53
58373;BME280;44177;43.356;27.672;2023-05-20T00:04:59;98273.03;;;13.63;71.84
58373;BME280;44177;43.356;27.672;2023-05-20T00:07:24;98272.22;;;13.58;72.03
58373;BME280;44177;43.356;27.672;2023-05-20T00:09:50;98269.84;;;13.57;72.19
58373;BME280;44177;43.356;27.672;2023-05-20T00:12:16;98265.06;;;13.54;72.34
58373;BME280;44177;43.356;27.672;2023-05-20T00:14:41;98256.47;;;13.55;72.00
58373;BME280;44177;43.356;27.672;2023-05-20T00:17:07;98256.78;;;13.50;72.43
58373;BME280;44177;43.356;27.672;2023-05-20T00:19:32;98247.75;;;13.50;72.60
58373;BME280;44177;43.356;27.672;2023-05-20T00:21:58;98255.63;;;13.51;72.65
58373;BME280;44177;43.356;27.672;2023-05-20T00:24:24;98246.25;;;13.52;72.79
58373;BME280;44177;43.356;27.672;2023-05-20T00:26:49;98240.34;;;13.50;72.90
58373;BME280;44177;43.356;27.672;2023-05-20T00:29:15;98234.56;;;13.55;73.20
58373;BME280;44177;43.356;27.672;2023-05-20T00:31:40;98226.53;;;13.43;73.39
58373;BME280;44177;43.356;27.672;2023-05-20T00:34:07;98246.38;;;13.60;73.69
58373;BME280;44177;43.356;27.672;2023-05-20T00:36:33;98248.75;;;13.61;73.61
58373;BME280;44177;43.356;27.672;2023-05-20T00:38:59;98235.41;;;13.60;73.56
58373;BME280;44177;43.356;27.672;2023-05-20T00:41:25;98237.72;;;13.57;73.77
58373;BME280;44177;43.356;27.672;2023-05-20T00:43:53;98246.72;;;13.58;74.25
58373;BME280;44177;43.356;27.672;2023-05-20T00:46:20;98230.47;;;13.46;75.05
58373;BME280;44177;43.356;27.672;2023-05-20T00:48:46;98231.69;;;13.48;75.72
58373;BME280;44177;43.356;27.672;2023-05-20T00:51:12;98229.00;;;13.52;76.00
58373;BME280;44177;43.356;27.672;2023-05-20T00:53:39;98214.25;;;13.37;76.10
58373;BME280;44177;43.356;27.672;2023-05-20T00:56:06;98212.53;;;13.29;75.82
58373;BME280;44177;43.356;27.672;2023-05-20T00:58:32;98225.22;;;13.37;75.42
58373;BME280;44177;43.356;27.672;2023-05-20T01:00:58;98227.97;;;13.37;75.61
58373;BME280;44177;43.356;27.672;2023-05-20T01:03:24;98199.44;;;13.18;75.58
58373;BME280;44177;43.356;27.672;2023-05-20T01:05:49;98215.75;;;13.34;75.81
58373;BME280;44177;43.356;27.672;2023-05-20T01:08:15;98221.22;;;13.34;75.68
58373;BME280;44177;43.356;27.672;2023-05-20T01:10:41;98215.28;;;13.29;76.21
58373;BME280;44177;43.356;27.672;2023-05-20T01:13:14;98212.59;;;13.32;76.06
58373;BME280;44177;43.356;27.672;2023-05-20T01:15:41;98202.06;;;13.34;76.02
58373;BME280;44177;43.356;27.672;2023-05-20T01:18:08;98217.72;;;13.34;76.51
58373;BME280;44177;43.356;27.672;2023-05-20T01:20:35;98205.91;;;13.30;76.24
58373;BME280;44177;43.356;27.672;2023-05-20T01:23:02;98214.69;;;13.39;76.52
58373;BME280;44177;43.356;27.672;2023-05-20T01:25:28;98216.00;;;13.45;76.03
58373;BME280;44177;43.356;27.672;2023-05-20T01:27:55;98206.75;;;13.34;76.86
58373;BME280;44177;43.356;27.672;2023-05-20T01:30:41;98221.03;;;13.43;76.53
58373;BME280;44177;43.356;27.672;2023-05-20T01:33:10;98217.56;;;13.46;76.42
58373;BME280;44177;43.356;27.672;2023-05-20T01:35:38;98221.09;;;13.47;76.56
58373;BME280;44177;43.356;27.672;2023-05-20T01:38:06;98223.34;;;13.41;76.87
58373;BME280;44177;43.356;27.672;2023-05-20T01:40:32;98213.81;;;13.35;77.08
58373;BME280;44177;43.356;27.672;2023-05-20T01:43:00;98224.88;;;13.38;77.09
58373;BME280;44177;43.356;27.672;2023-05-20T01:45:27;98231.25;;;13.46;77.10
58373;BME280;44177;43.356;27.672;2023-05-20T01:47:52;98232.91;;;13.51;76.73
58373;BME280;44177;43.356;27.672;2023-05-20T01:50:18;98231.41;;;13.53;76.70
58373;BME280;44177;43.356;27.672;2023-05-20T01:52:43;98231.41;;;13.53;76.58
58373;BME280;44177;43.356;27.672;2023-05-20T01:55:09;98232.25;;;13.57;77.15
58373;BME280;44177;43.356;27.672;2023-05-20T01:57:34;98232.63;;;13.56;76.85
58373;BME280;44177;43.356;27.672;2023-05-20T02:00:00;98226.53;;;13.43;77.39
58373;BME280;44177;43.356;27.672;2023-05-20T02:02:26;98227.31;;;13.43;77.69
58373;BME280;44177;43.356;27.672;2023-05-20T02:04:52;98233.88;;;13.39;78.00
58373;BME280;44177;43.356;27.672;2023-05-20T02:07:18;98234.94;;;13.34;78.70
58373;BME280;44177;43.356;27.672;2023-05-20T02:09:44;98230.97;;;13.32;78.83
58373;BME280;44177;43.356;27.672;2023-05-20T02:12:10;98236.88;;;13.34;78.94
58373;BME280;44177;43.356;27.672;2023-05-20T02:14:43;98235.69;;;13.31;79.73
58373;BME280;44177;43.356;27.672;2023-05-20T02:17:09;98242.09;;;13.39;79.53
58373;BME280;44177;43.356;27.672;2023-05-20T02:19:35;98241.31;;;13.38;79.31
58373;BME280;44177;43.356;27.672;2023-05-20T02:22:00;98234.22;;;13.37;79.77
58373;BME280;44177;43.356;27.672;2023-05-20T02:24:26;98238.19;;;13.40;80.00
58373;BME280;44177;43.356;27.672;2023-05-20T02:26:51;98227.25;;;13.40;80.03
58373;BME280;44177;43.356;27.672;2023-05-20T02:29:18;98229.69;;;13.45;79.58
58373;BME280;44177;43.356;27.672;2023-05-20T02:31:46;98242.28;;;13.50;80.01
58373;BME280;44177;43.356;27.672;2023-05-20T02:34:12;98236.44;;;13.51;79.95
58373;BME280;44177;43.356;27.672;2023-05-20T02:36:37;98247.09;;;13.56;80.19
58373;BME280;44177;43.356;27.672;2023-05-20T02:39:04;98247.91;;;13.57;79.97
58373;BME280;44177;43.356;27.672;2023-05-20T02:41:29;98224.94;;;13.42;80.63
58373;BME280;44177;43.356;27.672;2023-05-20T02:43:55;98231.69;;;13.48;80.60
58373;BME280;44177;43.356;27.672;2023-05-20T02:46:20;98228.22;;;13.51;81.33
58373;BME280;44177;43.356;27.672;2023-05-20T02:48:46;98238.88;;;13.56;81.19
58373;BME280;44177;43.356;27.672;2023-05-20T02:51:11;98241.78;;;13.67;81.14
58373;BME280;44177;43.356;27.672;2023-05-20T02:53:37;98247.06;;;13.76;81.02
58373;BME280;44177;43.356;27.672;2023-05-20T02:56:03;98252.66;;;13.83;81.25
58373;BME280;44177;43.356;27.672;2023-05-20T02:58:29;98248.25;;;13.79;81.17
58373;BME280;44177;43.356;27.672;2023-05-20T03:00:54;98249.97;;;13.87;80.82
58373;BME280;44177;43.356;27.672;2023-05-20T03:03:24;98245.25;;;13.87;80.38
58373;BME280;44177;43.356;27.672;2023-05-20T03:05:51;98264.94;;;13.93;80.16
58373;BME280;44177;43.356;27.672;2023-05-20T03:08:18;98270.84;;;13.95;80.38
58373;BME280;44177;43.356;27.672;2023-05-20T03:10:44;98282.22;;;13.97;80.59
58373;BME280;44177;43.356;27.672;2023-05-20T03:13:09;98286.09;;;13.93;80.38
58373;BME280;44177;43.356;27.672;2023-05-20T03:15:38;98275.84;;;13.89;80.74
58373;BME280;44177;43.356;27.672;2023-05-20T03:18:05;98288.47;;;13.94;80.55
58373;BME280;44177;43.356;27.672;2023-05-20T03:20:31;98284.50;;;13.92;80.18
58373;BME280;44177;43.356;27.672;2023-05-20T03:23:06;98282.94;;;13.90;80.48
58373;BME280;44177;43.356;27.672;2023-05-20T03:25:32;98286.09;;;13.93;80.46
58373;BME280;44177;43.356;27.672;2023-05-20T03:27:58;98275.84;;;13.89;80.43
58373;BME280;44177;43.356;27.672;2023-05-20T03:30:24;98291.66;;;13.96;80.48
58373;BME280;44177;43.356;27.672;2023-05-20T03:32:50;98278.22;;;13.91;80.17
58373;BME280;44177;43.356;27.672;2023-05-20T03:35:16;98290.00;;;13.92;80.52
58373;BME280;44177;43.356;27.672;2023-05-20T03:37:42;98270.84;;;13.72;80.72
58373;BME280;44177;43.356;27.672;2023-05-20T03:40:08;98287.53;;;13.86;80.90
58373;BME280;44177;43.356;27.672;2023-05-20T03:42:37;98285.22;;;13.88;80.88
58373;BME280;44177;43.356;27.672;2023-05-20T03:45:03;98274.03;;;13.74;81.16
58373;BME280;44177;43.356;27.672;2023-05-20T03:47:29;98261.84;;;13.71;80.66
58373;BME280;44177;43.356;27.672;2023-05-20T03:49:55;98307.16;;;13.88;81.21
58373;BME280;44177;43.356;27.672;2023-05-20T03:52:20;98284.75;;;13.83;81.22
58373;BME280;44177;43.356;27.672;2023-05-20T03:54:46;98285.91;;;13.82;81.28
58373;BME280;44177;43.356;27.672;2023-05-20T03:57:11;98291.44;;;13.85;81.77
58373;BME280;44177;43.356;27.672;2023-05-20T03:59:37;98291.50;;;13.89;81.93
58373;BME280;44177;43.356;27.672;2023-05-20T04:02:03;98291.16;;;13.90;81.81
58373;BME280;44177;43.356;27.672;2023-05-20T04:04:29;98287.53;;;13.86;82.05
58373;BME280;44177;43.356;27.672;2023-05-20T04:06:54;98278.16;;;13.87;82.66
58373;BME280;44177;43.356;27.672;2023-05-20T04:09:21;98289.56;;;13.89;82.46
58373;BME280;44177;43.356;27.672;2023-05-20T04:11:47;98284.97;;;13.97;82.65
58373;BME280;44177;43.356;27.672;2023-05-20T04:14:12;98290.13;;;13.99;82.21
58373;BME280;44177;43.356;27.672;2023-05-20T04:16:38;98287.00;;;14.00;82.37
58373;BME280;44177;43.356;27.672;2023-05-20T04:19:03;98295.78;;;13.86;83.63
58373;BME280;44177;43.356;27.672;2023-05-20T04:21:29;98295.53;;;13.95;83.85
58373;BME280;44177;43.356;27.672;2023-05-20T04:23:55;98290.88;;;13.99;83.24
58373;BME280;44177;43.356;27.672;2023-05-20T04:26:21;98288.53;;;13.98;83.75
58373;BME280;44177;43.356;27.672;2023-05-20T04:28:46;98290.28;;;14.10;83.37
58373;BME280;44177;43.356;27.672;2023-05-20T04:31:15;98282.72;;;14.03;83.52
58373;BME280;44177;43.356;27.672;2023-05-20T04:33:41;98284.00;;;14.09;83.42
58373;BME280;44177;43.356;27.672;2023-05-20T04:36:09;98293.50;;;14.15;83.95
58373;BME280;44177;43.356;27.672;2023-05-20T04:38:36;98282.47;;;14.12;84.43
58373;BME280;44177;43.356;27.672;2023-05-20T04:41:02;98304.47;;;14.15;85.17
58373;BME280;44177;43.356;27.672;2023-05-20T04:43:29;98289.63;;;14.16;85.84
58373;BME280;44177;43.356;27.672;2023-05-20T04:45:58;98307.28;;;14.19;86.02
58373;BME280;44177;43.356;27.672;2023-05-20T04:48:25;98294.66;;;14.14;87.17
58373;BME280;44177;43.356;27.672;2023-05-20T04:50:51;98293.56;;;14.19;87.41
58373;BME280;44177;43.356;27.672;2023-05-20T04:53:18;98291.06;;;14.10;88.26
58373;BME280;44177;43.356;27.672;2023-05-20T04:55:46;98270.97;;;14.02;88.55
58373;BME280;44177;43.356;27.672;2023-05-20T04:58:12;98282.38;;;14.04;88.78
58373;BME280;44177;43.356;27.672;2023-05-20T05:00:45;98294.38;;;13.96;89.22
58373;BME280;44177;43.356;27.672;2023-05-20T05:03:11;98276.69;;;13.94;89.30
58373;BME280;44177;43.356;27.672;2023-05-20T05:05:39;98283.03;;;13.98;89.28
58373;BME280;44177;43.356;27.672;2023-05-20T05:08:06;98289.69;;;13.97;89.93
58373;BME280;44177;43.356;27.672;2023-05-20T05:10:32;98282.19;;;13.94;89.59
58373;BME280;44177;43.356;27.672;2023-05-20T05:12:58;98278.00;;;14.00;89.74
58373;BME280;44177;43.356;27.672;2023-05-20T05:15:24;98282.72;;;14.03;90.68
58373;BME280;44177;43.356;27.672;2023-05-20T05:17:49;98280.91;;;13.87;91.27
58373;BME280;44177;43.356;27.672;2023-05-20T05:20:15;98277.88;;;13.93;91.57
58373;BME280;44177;43.356;27.672;2023-05-20T05:22:41;98273.94;;;13.94;90.65
58373;BME280;44177;43.356;27.672;2023-05-20T05:25:07;98273.59;;;13.95;90.89
58373;BME280;44177;43.356;27.672;2023-05-20T05:27:33;98286.31;;;14.07;91.63
58373;BME280;44177;43.356;27.672;2023-05-20T05:30:01;98280.19;;;14.17;90.68
58373;BME280;44177;43.356;27.672;2023-05-20T05:32:27;98294.34;;;14.19;90.84
58373;BME280;44177;43.356;27.672;2023-05-20T05:34:52;98296.00;;;14.24;91.15
58373;BME280;44177;43.356;27.672;2023-05-20T05:37:18;98279.00;;;14.15;90.91
58373;BME280;44177;43.356;27.672;2023-05-20T05:39:43;98289.72;;;14.24;90.32
58373;BME280;44177;43.356;27.672;2023-05-20T05:42:09;98277.69;;;14.32;90.49
58373;BME280;44177;43.356;27.672;2023-05-20T05:44:34;98267.13;;;14.34;90.22
58373;BME280;44177;43.356;27.672;2023-05-20T05:47:00;98265.47;;;14.29;91.05
58373;BME280;44177;43.356;27.672;2023-05-20T05:49:25;98259.75;;;14.38;90.29
58373;BME280;44177;43.356;27.672;2023-05-20T05:51:51;98263.38;;;14.46;89.52
58373;BME280;44177;43.356;27.672;2023-05-20T05:54:16;98266.59;;;14.51;89.69
58373;BME280;44177;43.356;27.672;2023-05-20T05:56:42;98278.53;;;14.63;88.59
58373;BME280;44177;43.356;27.672;2023-05-20T05:59:07;98266.38;;;14.64;88.50
58373;BME280;44177;43.356;27.672;2023-05-20T06:01:33;98268.88;;;14.73;88.87
58373;BME280;44177;43.356;27.672;2023-05-20T06:03:59;98265.00;;;14.77;88.01
58373;BME280;44177;43.356;27.672;2023-05-20T06:06:25;98263.47;;;14.80;87.01
58373;BME280;44177;43.356;27.672;2023-05-20T06:08:50;98261.56;;;14.88;86.76
58373;BME280;44177;43.356;27.672;2023-05-20T06:11:16;98256.97;;;14.95;86.36
58373;BME280;44177;43.356;27.672;2023-05-20T06:13:41;98260.19;;;15.01;85.19
58373;BME280;44177;43.356;27.672;2023-05-20T06:16:07;98223.97;;;14.92;84.02
58373;BME280;44177;43.356;27.672;2023-05-20T06:18:32;98252.09;;;15.15;83.89
58373;BME280;44177;43.356;27.672;2023-05-20T06:20:58;98250.47;;;15.48;83.49
58373;BME280;44177;43.356;27.672;2023-05-20T06:23:24;98238.41;;;16.05;82.94
58373;BME280;44177;43.356;27.672;2023-05-20T06:25:50;98235.03;;;16.34;80.96
58373;BME280;44177;43.356;27.672;2023-05-20T06:28:16;98230.28;;;16.27;78.99
58373;BME280;44177;43.356;27.672;2023-05-20T06:30:42;98225.06;;;16.11;78.35
58373;BME280;44177;43.356;27.672;2023-05-20T06:33:08;98232.56;;;16.14;77.81
58373;BME280;44177;43.356;27.672;2023-05-20T06:35:33;98236.75;;;15.93;77.30
58373;BME280;44177;43.356;27.672;2023-05-20T06:37:59;98232.06;;;15.98;77.71
58373;BME280;44177;43.356;27.672;2023-05-20T06:40:28;98234.09;;;16.04;76.92
58373;BME280;44177;43.356;27.672;2023-05-20T06:42:53;98227.75;;;16.00;78.24
58373;BME280;44177;43.356;27.672;2023-05-20T06:45:19;98241.53;;;16.04;78.27
58373;BME280;44177;43.356;27.672;2023-05-20T06:47:46;98241.19;;;16.09;78.37
58373;BME280;44177;43.356;27.672;2023-05-20T06:50:13;98224.94;;;15.93;78.06
58373;BME280;44177;43.356;27.672;2023-05-20T06:52:38;98241.50;;;16.00;78.19
58373;BME280;44177;43.356;27.672;2023-05-20T06:55:04;98237.28;;;16.14;78.90
58373;BME280;44177;43.356;27.672;2023-05-20T06:57:30;98240.81;;;16.10;78.18
58373;BME280;44177;43.356;27.672;2023-05-20T06:59:55;98240.03;;;16.14;77.82
58373;BME280;44177;43.356;27.672;2023-05-20T07:02:21;98251.38;;;16.05;78.07
58373;BME280;44177;43.356;27.672;2023-05-20T07:04:47;98265.16;;;16.08;77.17
58373;BME280;44177;43.356;27.672;2023-05-20T07:07:13;98260.72;;;15.97;77.23
58373;BME280;44177;43.356;27.672;2023-05-20T07:09:38;98269.84;;;16.04;77.82
58373;BME280;44177;43.356;27.672;2023-05-20T07:12:04;98278.81;;;15.94;77.47
58373;BME280;44177;43.356;27.672;2023-05-20T07:14:30;98275.34;;;16.04;76.67
58373;BME280;44177;43.356;27.672;2023-05-20T07:16:56;98286.41;;;16.12;76.22
58373;BME280;44177;43.356;27.672;2023-05-20T07:19:21;98282.06;;;16.10;75.17
58373;BME280;44177;43.356;27.672;2023-05-20T07:21:47;98289.97;;;16.16;77.46
58373;BME280;44177;43.356;27.672;2023-05-20T07:24:13;98293.16;;;16.21;75.51
58373;BME280;44177;43.356;27.672;2023-05-20T07:26:39;98286.16;;;16.31;74.42
58373;BME280;44177;43.356;27.672;2023-05-20T07:29:05;98283.38;;;16.27;74.44
58373;BME280;44177;43.356;27.672;2023-05-20T07:31:30;98298.50;;;16.55;74.58
58373;BME280;44177;43.356;27.672;2023-05-20T07:33:56;98293.06;;;16.66;75.15
58373;BME280;44177;43.356;27.672;2023-05-20T07:36:22;98292.88;;;17.00;74.10
58373;BME280;44177;43.356;27.672;2023-05-20T07:38:47;98292.56;;;17.34;73.58
58373;BME280;44177;43.356;27.672;2023-05-20T07:41:13;98284.41;;;17.89;72.00
58373;BME280;44177;43.356;27.672;2023-05-20T07:43:39;98289.53;;;18.44;71.33
58373;BME280;44177;43.356;27.672;2023-05-20T07:46:04;98283.09;;;18.94;69.57
58373;BME280;44177;43.356;27.672;2023-05-20T07:48:30;98279.66;;;19.50;66.92
58373;BME280;44177;43.356;27.672;2023-05-20T07:50:55;98291.78;;;19.71;64.82
58373;BME280;44177;43.356;27.672;2023-05-20T07:53:24;98295.19;;;19.97;64.60
58373;BME280;44177;43.356;27.672;2023-05-20T07:55:49;98288.00;;;20.03;63.88
58373;BME280;44177;43.356;27.672;2023-05-20T07:58:15;98286.31;;;20.20;64.59
58373;BME280;44177;43.356;27.672;2023-05-20T08:00:40;98300.59;;;20.11;64.90
58373;BME280;44177;43.356;27.672;2023-05-20T08:03:06;98312.72;;;19.72;64.64
58373;BME280;44177;43.356;27.672;2023-05-20T08:05:32;98310.84;;;19.54;63.79
58373;BME280;44177;43.356;27.672;2023-05-20T08:07:57;98309.34;;;19.39;64.96
58373;BME280;44177;43.356;27.672;2023-05-20T08:10:23;98313.75;;;19.29;65.90
58373;BME280;44177;43.356;27.672;2023-05-20T08:12:48;98310.22;;;19.18;66.12
58373;BME280;44177;43.356;27.672;2023-05-20T08:15:14;98305.19;;;18.91;67.72
58373;BME280;44177;43.356;27.672;2023-05-20T08:17:40;98305.22;;;18.94;69.29
58373;BME280;44177;43.356;27.672;2023-05-20T08:20:06;98305.25;;;18.73;68.82
58373;BME280;44177;43.356;27.672;2023-05-20T08:22:32;98306.84;;;18.59;70.13
58373;BME280;44177;43.356;27.672;2023-05-20T08:24:59;98310.81;;;18.62;70.23
58373;BME280;44177;43.356;27.672;2023-05-20T08:27:24;98310.03;;;18.47;70.78
58373;BME280;44177;43.356;27.672;2023-05-20T08:29:50;98309.22;;;18.43;71.83
58373;BME280;44177;43.356;27.672;2023-05-20T08:32:15;98299.78;;;18.37;72.32
58373;BME280;44177;43.356;27.672;2023-05-20T08:34:41;98313.56;;;18.51;72.58
58373;BME280;44177;43.356;27.672;2023-05-20T08:37:07;98319.09;;;18.55;73.52
58373;BME280;44177;43.356;27.672;2023-05-20T08:39:32;98320.28;;;18.57;72.91
58373;BME280;44177;43.356;27.672;2023-05-20T08:41:58;98326.16;;;18.63;73.24
58373;BME280;44177;43.356;27.672;2023-05-20T08:44:24;98318.69;;;18.63;72.48
58373;BME280;44177;43.356;27.672;2023-05-20T08:46:52;98321.84;;;18.66;71.90
58373;BME280;44177;43.356;27.672;2023-05-20T08:49:19;98327.34;;;18.73;71.39
58373;BME280;44177;43.356;27.672;2023-05-20T08:51:44;98322.19;;;18.75;71.11
58373;BME280;44177;43.356;27.672;2023-05-20T08:54:12;98322.19;;;18.89;71.73
58373;BME280;44177;43.356;27.672;2023-05-20T08:56:39;98317.38;;;19.12;71.99
58373;BME280;44177;43.356;27.672;2023-05-20T08:59:07;98328.38;;;19.26;70.21
58373;BME280;44177;43.356;27.672;2023-05-20T09:01:39;98300.69;;;19.30;70.66
58373;BME280;44177;43.356;27.672;2023-05-20T09:04:05;98311.72;;;19.40;70.15
58373;BME280;44177;43.356;27.672;2023-05-20T09:06:44;98309.59;;;19.63;69.43
58373;BME280;44177;43.356;27.672;2023-05-20T09:09:14;98306.38;;;19.75;69.43
58373;BME280;44177;43.356;27.672;2023-05-20T09:11:40;98303.19;;;19.77;67.88
58373;BME280;44177;43.356;27.672;2023-05-20T09:14:07;98304.75;;;19.81;67.96
58373;BME280;44177;43.356;27.672;2023-05-20T09:16:33;98298.41;;;19.92;67.96
58373;BME280;44177;43.356;27.672;2023-05-20T09:18:58;98302.25;;;20.05;66.39
58373;BME280;44177;43.356;27.672;2023-05-20T09:21:27;98293.31;;;20.32;66.49
58373;BME280;44177;43.356;27.672;2023-05-20T09:23:53;98302.81;;;20.73;65.60
58373;BME280;44177;43.356;27.672;2023-05-20T09:26:22;98290.06;;;21.13;63.88
58373;BME280;44177;43.356;27.672;2023-05-20T09:28:48;98286.06;;;21.76;62.42
58373;BME280;44177;43.356;27.672;2023-05-20T09:31:13;98275.56;;;21.88;60.23
58373;BME280;44177;43.356;27.672;2023-05-20T09:33:39;98279.97;;;21.85;59.17
58373;BME280;44177;43.356;27.672;2023-05-20T09:36:08;98274.50;;;22.05;58.07
58373;BME280;44177;43.356;27.672;2023-05-20T09:38:36;98269.53;;;22.17;55.93
58373;BME280;44177;43.356;27.672;2023-05-20T09:41:11;98269.72;;;22.30;57.63
58373;BME280;44177;43.356;27.672;2023-05-20T09:43:38;98279.81;;;22.20;56.78
58373;BME280;44177;43.356;27.672;2023-05-20T09:46:04;98262.91;;;22.11;54.40
58373;BME280;44177;43.356;27.672;2023-05-20T09:48:30;98263.44;;;22.69;54.51
58373;BME280;44177;43.356;27.672;2023-05-20T09:50:56;98263.56;;;23.59;54.10
58373;BME280;44177;43.356;27.672;2023-05-20T09:53:25;98258.09;;;23.89;51.48
58373;BME280;44177;43.356;27.672;2023-05-20T09:55:53;98255.41;;;23.69;50.88
58373;BME280;44177;43.356;27.672;2023-05-20T09:58:19;98253.66;;;23.91;52.86
58373;BME280;44177;43.356;27.672;2023-05-20T10:00:45;98245.50;;;23.84;51.39
58373;BME280;44177;43.356;27.672;2023-05-20T10:03:11;98239.63;;;23.62;50.21
58373;BME280;44177;43.356;27.672;2023-05-20T10:05:54;98242.34;;;24.15;50.77
58373;BME280;44177;43.356;27.672;2023-05-20T10:11:37;98235.50;;;24.03;49.65
58373;BME280;44177;43.356;27.672;2023-05-20T10:17:24;98223.69;;;23.29;50.77
58373;BME280;44177;43.356;27.672;2023-05-20T10:19:58;98232.81;;;23.30;53.40
58373;BME280;44177;43.356;27.672;2023-05-20T10:22:26;98235.44;;;23.37;53.54
58373;BME280;44177;43.356;27.672;2023-05-20T10:24:59;98222.00;;;23.85;51.40
58373;BME280;44177;43.356;27.672;2023-05-20T10:27:41;98226.97;;;23.94;51.51
58373;BME280;44177;43.356;27.672;2023-05-20T10:30:14;98233.81;;;24.22;51.41
58373;BME280;44177;43.356;27.672;2023-05-20T10:32:57;98226.25;;;24.82;50.67
58373;BME280;44177;43.356;27.672;2023-05-20T10:35:25;98216.31;;;25.49;49.24
58373;BME280;44177;43.356;27.672;2023-05-20T10:37:52;98205.97;;;26.32;47.58
58373;BME280;44177;43.356;27.672;2023-05-20T10:40:20;98199.28;;;26.97;45.01
58373;BME280;44177;43.356;27.672;2023-05-20T10:42:45;98202.41;;;27.08;42.42
58373;BME280;44177;43.356;27.672;2023-05-20T10:45:24;98192.78;;;26.77;40.57
58373;BME280;44177;43.356;27.672;2023-05-20T10:47:57;98196.47;;;26.97;39.97
58373;BME280;44177;43.356;27.672;2023-05-20T10:50:41;98192.97;;;27.15;38.29
58373;BME280;44177;43.356;27.672;2023-05-20T10:53:12;98187.81;;;26.82;34.99
58373;BME280;44177;43.356;27.672;2023-05-20T10:55:39;98182.34;;;27.00;33.51
58373;BME280;44177;43.356;27.672;2023-05-20T10:58:06;98185.88;;;27.73;32.46
58373;BME280;44177;43.356;27.672;2023-05-20T11:00:35;98175.81;;;28.59;32.66
58373;BME280;44177;43.356;27.672;2023-05-20T11:03:03;98168.19;;;29.12;31.40
58373;BME280;44177;43.356;27.672;2023-05-20T11:05:30;98165.97;;;28.73;30.67
58373;BME280;44177;43.356;27.672;2023-05-20T11:08:03;98170.28;;;29.36;31.54
58373;BME280;44177;43.356;27.672;2023-05-20T11:10:29;98147.81;;;29.93;29.98
58373;BME280;44177;43.356;27.672;2023-05-20T11:12:55;98136.59;;;30.23;29.85
58373;BME280;44177;43.356;27.672;2023-05-20T11:15:22;98149.41;;;30.24;26.94
58373;BME280;44177;43.356;27.672;2023-05-20T11:18:02;98134.66;;;29.42;26.97
58373;BME280;44177;43.356;27.672;2023-05-20T11:20:29;98132.25;;;30.22;28.04
58373;BME280;44177;43.356;27.672;2023-05-20T11:22:55;98136.66;;;30.53;28.05
58373;BME280;44177;43.356;27.672;2023-05-20T11:25:21;98140.03;;;30.72;28.80
58373;BME280;44177;43.356;27.672;2023-05-20T11:27:50;98126.00;;;31.08;27.89
58373;BME280;44177;43.356;27.672;2023-05-20T11:30:16;98127.53;;;30.59;27.27
58373;BME280;44177;43.356;27.672;2023-05-20T11:32:59;98129.38;;;29.92;27.84
58373;BME280;44177;43.356;27.672;2023-05-20T11:35:26;98122.25;;;30.06;27.10
58373;BME280;44177;43.356;27.672;2023-05-20T11:40:28;98123.56;;;29.96;25.96
58373;BME280;44177;43.356;27.672;2023-05-20T11:42:56;98112.53;;;30.22;26.27
58373;BME280;44177;43.356;27.672;2023-05-20T11:45:22;98110.91;;;30.31;26.13
58373;BME280;44177;43.356;27.672;2023-05-20T11:48:02;98097.03;;;30.27;26.11
58373;BME280;44177;43.356;27.672;2023-05-20T11:50:32;98094.31;;;30.33;26.17
58373;BME280;44177;43.356;27.672;2023-05-20T11:52:58;98094.00;;;30.01;25.32
58373;BME280;44177;43.356;27.672;2023-05-20T11:55:27;98094.19;;;29.73;25.97
58373;BME280;44177;43.356;27.672;2023-05-20T11:57:53;98112.56;;;29.25;26.99
58373;BME280;44177;43.356;27.672;2023-05-20T12:00:19;98105.50;;;28.53;27.20
58373;BME280;44177;43.356;27.672;2023-05-20T12:02:45;98106.66;;;28.19;27.44
58373;BME280;44177;43.356;27.672;2023-05-20T12:05:11;98105.66;;;28.50;27.53
58373;BME280;44177;43.356;27.672;2023-05-20T12:07:38;98104.78;;;28.16;27.35
58373;BME280;44177;43.356;27.672;2023-05-20T12:10:04;98094.94;;;28.39;27.81
58373;BME280;44177;43.356;27.672;2023-05-20T12:12:30;98090.75;;;28.34;27.76
58373;BME280;44177;43.356;27.672;2023-05-20T12:14:56;98094.53;;;28.13;28.31
58373;BME280;44177;43.356;27.672;2023-05-20T12:17:22;98107.84;;;27.53;27.88
58373;BME280;44177;43.356;27.672;2023-05-20T12:19:47;98091.53;;;27.88;27.71
58373;BME280;44177;43.356;27.672;2023-05-20T12:22:13;98096.97;;;27.83;27.17
58373;BME280;44177;43.356;27.672;2023-05-20T12:24:38;98106.31;;;27.70;26.94
58373;BME280;44177;43.356;27.672;2023-05-20T12:27:04;98101.97;;;27.88;27.79
58373;BME280;44177;43.356;27.672;2023-05-20T12:29:31;98097.75;;;27.74;27.14
58373;BME280;44177;43.356;27.672;2023-05-20T12:31:56;98103.59;;;27.39;26.67
58373;BME280;44177;43.356;27.672;2023-05-20T12:34:22;98092.16;;;27.93;27.30
58373;BME280;44177;43.356;27.672;2023-05-20T12:36:48;98088.25;;;27.99;26.30
58373;BME280;44177;43.356;27.672;2023-05-20T12:39:13;98097.00;;;27.92;26.87
58373;BME280;44177;43.356;27.672;2023-05-20T12:41:42;98084.41;;;28.15;27.42
58373;BME280;44177;43.356;27.672;2023-05-20T12:44:07;98082.34;;;28.07;28.13
58373;BME280;44177;43.356;27.672;2023-05-20T12:46:34;98075.50;;;28.17;27.88
58373;BME280;44177;43.356;27.672;2023-05-20T12:49:00;98073.59;;;28.32;28.57
58373;BME280;44177;43.356;27.672;2023-05-20T12:51:26;98082.84;;;27.77;28.19
58373;BME280;44177;43.356;27.672;2023-05-20T12:53:51;98074.44;;;27.77;27.95
58373;BME280;44177;43.356;27.672;2023-05-20T12:56:16;98075.19;;;28.15;27.28